Time;durP1;ratioP1;P1;durP2;ratioP2;P2;SDS_P1;SDS_P2;PMS_P1;PMS_P2;Temp;Humidity;BMP_temperature;BMP_pressure;BME280_temperature;BME280_humidity;BME280_pressure;Samples;Min_cycle;Max_cycle;Signal;HPM_P1;HPM_P2
2022/02/27 00:09:44;;;;;;;10.88;5.10;;;;;;;;;;20997327;28;20084;-59
2022/02/27 00:19:46;;;;;;;10.50;5.28;;;;;;;;;;20994943;28;20171;-66
2022/02/27 00:29:48;;;;;;;10.30;5.05;;;;;;;;;;20996825;28;20053;-60
2022/02/27 00:39:50;;;;;;;10.27;5.10;;;;;;;;;;20995019;28;20137;-60
2022/02/27 00:49:52;;;;;;;10.57;5.05;;;;;;;;;;20996372;28;20052;-59
2022/02/27 00:59:55;;;;;;;10.18;5.15;;;;;;;;;;20994531;28;20143;-67
2022/02/27 01:09:57;;;;;;;10.77;5.30;;;;;;;;;;20997486;28;20148;-67
2022/02/27 01:19:59;;;;;;;13.90;6.05;;;;;;;;;;21008571;28;20053;-66
2022/02/27 01:30:01;;;;;;;15.02;5.90;;;;;;;;;;21009192;28;20071;-69
2022/02/27 01:40:04;;;;;;;16.17;7.15;;;;;;;;;;21008802;28;20078;-67
2022/02/27 01:50:07;;;;;;;9.88;5.45;;;;;;;;;;21007900;28;20106;-65
2022/02/27 02:00:10;;;;;;;12.95;6.00;;;;;;;;;;21007591;28;20056;-68
2022/02/27 02:10:12;;;;;;;9.82;5.28;;;;;;;;;;21006711;28;20113;-60
2022/02/27 02:20:17;;;;;;;9.70;4.88;;;;;;;;;;21005604;28;20045;-58
2022/02/27 02:30:20;;;;;;;11.68;5.68;;;;;;;;;;21003414;28;20049;-67
2022/02/27 02:40:25;;;;;;;18.27;7.47;;;;;;;;;;21004414;28;20160;-67
2022/02/27 02:50:34;;;;;;;14.77;6.28;;;;;;;;;;21003299;28;20045;-67
2022/02/27 03:00:48;;;;;;;13.75;6.28;;;;;;;;;;21002568;28;20110;-67
2022/02/27 03:10:50;;;;;;;12.20;6.03;;;;;;;;;;21001215;28;20417;-63
2022/02/27 03:21:00;;;;;;;12.90;5.20;;;;;;;;;;21000743;28;20052;-57
2022/02/27 03:31:08;;;;;;;11.07;5.65;;;;;;;;;;20999085;28;20056;-66
2022/02/27 03:41:16;;;;;;;14.77;5.78;;;;;;;;;;20999182;28;20051;-66
2022/02/27 03:51:25;;;;;;;10.75;4.97;;;;;;;;;;20997779;28;20059;-66
2022/02/27 04:01:29;;;;;;;11.93;5.27;;;;;;;;;;20998793;28;20441;-59
2022/02/27 04:11:32;;;;;;;12.65;5.43;;;;;;;;;;20997377;28;20078;-65
2022/02/27 04:21:36;;;;;;;14.75;5.00;;;;;;;;;;20997214;28;20048;-62
2022/02/27 04:31:39;;;;;;;9.02;4.85;;;;;;;;;;20998107;28;20056;-59
2022/02/27 04:41:43;;;;;;;13.63;5.63;;;;;;;;;;20997079;28;20049;-60
2022/02/27 04:51:51;;;;;;;11.75;5.03;;;;;;;;;;21013547;28;20090;-57
2022/02/27 05:01:54;;;;;;;11.80;5.07;;;;;;;;;;21012712;28;20056;-66
2022/02/27 05:11:56;;;;;;;14.80;4.47;;;;;;;;;;21010700;28;20059;-68
2022/02/27 05:21:59;;;;;;;13.98;4.95;;;;;;;;;;21009495;28;20044;-65
2022/02/27 05:32:02;;;;;;;12.75;4.72;;;;;;;;;;21009713;28;20060;-68
2022/02/27 05:42:04;;;;;;;14.25;5.60;;;;;;;;;;21008821;28;20118;-67
2022/02/27 05:52:06;;;;;;;10.23;4.85;;;;;;;;;;21008127;28;20511;-67
2022/02/27 06:02:08;;;;;;;13.68;4.82;;;;;;;;;;21006516;28;20049;-66
2022/02/27 06:12:11;;;;;;;13.23;5.47;;;;;;;;;;21007070;28;20083;-65
2022/02/27 06:22:13;;;;;;;13.30;4.55;;;;;;;;;;21004683;28;20386;-66
2022/02/27 06:32:15;;;;;;;12.50;4.47;;;;;;;;;;21004778;28;20125;-67
2022/02/27 06:42:17;;;;;;;9.65;5.15;;;;;;;;;;21005243;28;20473;-58
2022/02/27 06:52:19;;;;;;;13.60;5.22;;;;;;;;;;21003434;28;20049;-67
2022/02/27 07:02:21;;;;;;;11.20;4.93;;;;;;;;;;21002979;28;20045;-68
2022/02/27 07:12:23;;;;;;;9.38;4.78;;;;;;;;;;21000128;28;20562;-66
2022/02/27 07:22:25;;;;;;;14.55;5.45;;;;;;;;;;20999385;28;20045;-65
2022/02/27 07:32:27;;;;;;;11.40;4.75;;;;;;;;;;20999796;28;20171;-68
2022/02/27 07:42:30;;;;;;;15.32;5.65;;;;;;;;;;20999287;28;20233;-68
2022/02/27 07:52:32;;;;;;;10.85;4.47;;;;;;;;;;20998168;28;20052;-66
2022/02/27 08:02:35;;;;;;;12.27;4.82;;;;;;;;;;20998514;28;20120;-66
2022/02/27 08:12:44;;;;;;;6.35;4.22;;;;;;;;;;20996805;28;20455;-63
2022/02/27 08:22:46;;;;;;;11.20;4.78;;;;;;;;;;20998362;28;20506;-64
2022/02/27 08:32:50;;;;;;;11.77;4.80;;;;;;;;;;20997150;28;20080;-67
2022/02/27 08:42:53;;;;;;;11.55;5.10;;;;;;;;;;20995778;28;20045;-65
2022/02/27 08:52:56;;;;;;;11.98;4.25;;;;;;;;;;20995435;28;20053;-66
2022/02/27 09:02:58;;;;;;;10.60;4.45;;;;;;;;;;20993612;28;20049;-66
2022/02/27 09:13:00;;;;;;;13.52;5.05;;;;;;;;;;20993625;28;20092;-66
2022/02/27 09:23:03;;;;;;;11.75;4.45;;;;;;;;;;20993760;28;20048;-68
2022/02/27 09:33:05;;;;;;;11.13;4.53;;;;;;;;;;20996247;28;20049;-68
2022/02/27 09:43:07;;;;;;;9.55;4.32;;;;;;;;;;21007266;28;20090;-65
2022/02/27 09:53:10;;;;;;;11.38;4.95;;;;;;;;;;21009332;28;20405;-66
2022/02/27 10:03:13;;;;;;;12.95;5.18;;;;;;;;;;21005705;28;20052;-67
2022/02/27 10:13:15;;;;;;;11.55;5.88;;;;;;;;;;21003590;28;20063;-67
2022/02/27 10:23:25;;;;;;;10.27;5.80;;;;;;;;;;21004192;28;20048;-67
2022/02/27 10:33:27;;;;;;;14.90;6.72;;;;;;;;;;21003645;28;20102;-68
2022/02/27 10:43:31;;;;;;;11.20;6.95;;;;;;;;;;21001943;28;20083;-66
2022/02/27 10:53:34;;;;;;;14.02;6.22;;;;;;;;;;21002051;28;20052;-67
2022/02/27 11:03:38;;;;;;;11.55;6.13;;;;;;;;;;21003123;28;20048;-62
2022/02/27 11:13:43;;;;;;;11.98;7.18;;;;;;;;;;20999597;28;20064;-60
2022/02/27 11:23:46;;;;;;;13.57;7.00;;;;;;;;;;20999274;28;20049;-67
2022/02/27 11:33:50;;;;;;;11.00;5.57;;;;;;;;;;20997335;28;20052;-66
2022/02/27 11:44:00;;;;;;;13.63;6.50;;;;;;;;;;20998243;28;20052;-65
2022/02/27 11:54:06;;;;;;;13.07;6.72;;;;;;;;;;20996167;28;20048;-66
2022/02/27 12:04:21;;;;;;;10.73;6.30;;;;;;;;;;20996506;28;20515;-68
2022/02/27 12:14:24;;;;;;;11.73;6.20;;;;;;;;;;20995250;28;20056;-67
2022/02/27 12:24:32;;;;;;;10.35;5.47;;;;;;;;;;20996441;28;20063;-69
2022/02/27 12:34:36;;;;;;;10.73;5.10;;;;;;;;;;20995719;28;20048;-67
2022/02/27 12:44:40;;;;;;;9.43;5.22;;;;;;;;;;20996475;28;20045;-67
2022/02/27 12:54:44;;;;;;;6.97;4.20;;;;;;;;;;20995494;28;20044;-61
2022/02/27 13:04:47;;;;;;;6.68;2.75;;;;;;;;;;20998845;28;20052;-69
2022/02/27 13:14:53;;;;;;;4.18;2.20;;;;;;;;;;21008871;28;20076;-70
2022/02/27 13:24:57;;;;;;;5.40;2.30;;;;;;;;;;21010945;28;20455;-69
2022/02/27 13:35:01;;;;;;;4.80;2.30;;;;;;;;;;21009336;28;20041;-67
2022/02/27 13:45:08;;;;;;;5.55;3.00;;;;;;;;;;21009020;28;20626;-66
2022/02/27 13:55:21;;;;;;;8.45;4.13;;;;;;;;;;21008322;28;20084;-69
2022/02/27 14:05:23;;;;;;;5.28;3.58;;;;;;;;;;21007605;28;20044;-59
2022/02/27 14:15:26;;;;;;;9.15;4.13;;;;;;;;;;21004305;28;20052;-59
2022/02/27 14:25:29;;;;;;;9.35;4.28;;;;;;;;;;21005829;28;20044;-70
2022/02/27 14:35:30;;;;;;;9.35;4.38;;;;;;;;;;21004999;28;20112;-58
2022/02/27 14:45:34;;;;;;;7.40;4.50;;;;;;;;;;21005273;28;20511;-68
2022/02/27 14:55:36;;;;;;;7.13;4.32;;;;;;;;;;21002427;28;20110;-70
2022/02/27 15:05:38;;;;;;;8.63;4.05;;;;;;;;;;21002508;28;20077;-66
2022/02/27 15:15:40;;;;;;;8.57;4.70;;;;;;;;;;21000565;28;20056;-70
2022/02/27 15:25:43;;;;;;;7.50;3.70;;;;;;;;;;21001201;28;20308;-70
2022/02/27 15:35:45;;;;;;;12.25;4.70;;;;;;;;;;20998990;28;20416;-67
2022/02/27 15:45:47;;;;;;;7.85;4.18;;;;;;;;;;20999687;28;20052;-62
2022/02/27 15:55:50;;;;;;;8.07;4.22;;;;;;;;;;20999184;28;20059;-69
2022/02/27 16:05:52;;;;;;;8.70;4.57;;;;;;;;;;20998503;28;20045;-66
2022/02/27 16:15:54;;;;;;;10.85;4.35;;;;;;;;;;20995350;28;20106;-59
2022/02/27 16:25:56;;;;;;;8.32;4.30;;;;;;;;;;20996125;28;20087;-70
2022/02/27 16:35:58;;;;;;;8.05;3.85;;;;;;;;;;20997034;28;20048;-65
2022/02/27 16:46:00;;;;;;;9.18;4.30;;;;;;;;;;21009959;28;20049;-68
2022/02/27 16:56:02;;;;;;;7.18;3.72;;;;;;;;;;21011535;28;20063;-60
2022/02/27 17:06:05;;;;;;;8.60;4.60;;;;;;;;;;21012167;28;20131;-68
2022/02/27 17:16:07;;;;;;;11.02;4.97;;;;;;;;;;21008941;28;20064;-64
2022/02/27 17:26:09;;;;;;;9.48;4.80;;;;;;;;;;21010573;28;20045;-71
2022/02/27 17:36:11;;;;;;;7.85;4.65;;;;;;;;;;21009990;28;20159;-70
2022/02/27 17:46:13;;;;;;;9.38;4.40;;;;;;;;;;21011329;28;20067;-59
2022/02/27 17:56:15;;;;;;;7.53;4.47;;;;;;;;;;21006684;28;20120;-71
2022/02/27 18:06:18;;;;;;;8.02;5.45;;;;;;;;;;21007765;28;20041;-70
2022/02/27 18:16:19;;;;;;;9.00;5.25;;;;;;;;;;21005605;28;20397;-62
2022/02/27 18:26:23;;;;;;;12.60;6.28;;;;;;;;;;21005493;28;20044;-67
2022/02/27 18:36:25;;;;;;;11.20;7.90;;;;;;;;;;21006604;28;20431;-61
2022/02/27 18:46:27;;;;;;;13.85;7.82;;;;;;;;;;21003252;28;20048;-68
2022/02/27 18:56:32;;;;;;;14.70;9.65;;;;;;;;;;21003777;28;20405;-66
2022/02/27 19:06:38;;;;;;;20.60;9.50;;;;;;;;;;21003182;28;20048;-70
2022/02/27 19:16:40;;;;;;;19.48;9.10;;;;;;;;;;21000969;28;20056;-70
2022/02/27 19:26:42;;;;;;;15.38;9.68;;;;;;;;;;21001050;28;20124;-65
2022/02/27 19:36:44;;;;;;;16.73;8.75;;;;;;;;;;21001938;28;20044;-70
2022/02/27 19:46:47;;;;;;;13.95;8.23;;;;;;;;;;20998624;28;20052;-62
2022/02/27 19:56:49;;;;;;;14.15;7.18;;;;;;;;;;20998222;28;20063;-69
2022/02/27 20:06:51;;;;;;;15.80;7.63;;;;;;;;;;20997880;28;20126;-68
2022/02/27 20:16:53;;;;;;;11.32;6.82;;;;;;;;;;20996652;28;20206;-69
2022/02/27 20:26:55;;;;;;;19.77;11.73;;;;;;;;;;20996906;28;20040;-64
2022/02/27 20:36:56;;;;;;;26.30;15.98;;;;;;;;;;20997186;28;20151;-69
2022/02/27 20:46:58;;;;;;;21.65;12.57;;;;;;;;;;20997157;28;20044;-67
2022/02/27 20:57:01;;;;;;;14.35;8.48;;;;;;;;;;20996359;28;20075;-67
2022/02/27 21:07:03;;;;;;;22.27;12.07;;;;;;;;;;20996010;28;20078;-69
2022/02/27 21:17:05;;;;;;;16.88;9.07;;;;;;;;;;20994637;28;20102;-67
2022/02/27 21:27:09;;;;;;;17.30;9.03;;;;;;;;;;20998419;28;20541;-68
2022/02/27 21:37:11;;;;;;;23.42;11.70;;;;;;;;;;21007630;28;20215;-66
2022/02/27 21:47:13;;;;;;;18.50;10.18;;;;;;;;;;21007889;28;20102;-65
2022/02/27 21:57:16;;;;;;;20.45;11.07;;;;;;;;;;21008456;28;20087;-69
2022/02/27 22:07:18;;;;;;;28.45;13.70;;;;;;;;;;21007256;28;20044;-66
2022/02/27 22:17:20;;;;;;;15.13;9.57;;;;;;;;;;21006374;28;20183;-69
2022/02/27 22:27:22;;;;;;;14.75;9.70;;;;;;;;;;21007646;28;20127;-68
2022/02/27 22:37:24;;;;;;;17.35;10.50;;;;;;;;;;21005235;28;20052;-69
2022/02/27 22:47:26;;;;;;;19.42;12.55;;;;;;;;;;21002109;28;20161;-69
2022/02/27 22:57:29;;;;;;;28.40;13.80;;;;;;;;;;21003661;28;20048;-68
2022/02/27 23:17:51;;;;;;;25.55;13.93;;;;;;;;;;21000427;28;20091;-61
2022/02/27 23:27:53;;;;;;;29.27;15.07;;;;;;;;;;21001015;28;20500;-58
2022/02/27 23:37:55;;;;;;;21.60;14.00;;;;;;;;;;21001148;28;20052;-68
2022/02/27 23:47:58;;;;;;;22.45;13.85;;;;;;;;;;20999739;28;20051;-70
2022/02/27 23:58:00;;;;;;;22.00;13.57;;;;;;;;;;20999763;28;20447;-67
